Time;durP1;ratioP1;P1;durP2;ratioP2;P2;SDS_P1;SDS_P2;PMS_P1;PMS_P2;Temp;Humidity;BMP_temperature;BMP_pressure;BME280_temperature;BME280_humidity;BME280_pressure;Samples;Min_cycle;Max_cycle;Signal;HPM_P1;HPM_P2
2023/03/17 00:01:55;;;;;;;15.95;5.55;;;;;;;;;;5002331;28;20065;-81
2023/03/17 00:07:59;;;;;;;30.60;6.60;;;;;;;;;;4988423;28;20094;-81
2023/03/17 00:10:39;;;;;;;9.35;4.82;;;;;;;;;;4996499;28;20062;-81
2023/03/17 00:13:09;;;;;;;15.52;5.43;;;;;;;;;;4982642;28;20087;-82
2023/03/17 00:15:40;;;;;;;20.88;5.25;;;;;;;;;;4999460;28;20030;-82
2023/03/17 00:18:16;;;;;;;19.73;4.85;;;;;;;;;;5034853;23;20061;-79
2023/03/17 00:20:42;;;;;;;16.58;4.68;;;;;;;;;;5042636;28;20025;-79
2023/03/17 00:23:14;;;;;;;23.77;6.72;;;;;;;;;;5047253;28;20101;-80
2023/03/17 00:25:42;;;;;;;12.13;4.70;;;;;;;;;;5046856;28;20025;-80
2023/03/17 00:28:19;;;;;;;9.82;4.53;;;;;;;;;;5058419;28;20026;-79
2023/03/17 00:30:46;;;;;;;11.55;4.80;;;;;;;;;;5044150;28;20572;-78
2023/03/17 00:33:14;;;;;;;13.70;4.65;;;;;;;;;;5042662;28;20037;-80
2023/03/17 00:35:41;;;;;;;17.67;4.95;;;;;;;;;;5046018;28;20033;-79
2023/03/17 00:38:10;;;;;;;27.60;4.63;;;;;;;;;;5045143;28;20037;-81
2023/03/17 00:40:36;;;;;;;22.65;5.45;;;;;;;;;;5043622;28;20049;-79
2023/03/17 00:43:02;;;;;;;16.63;4.18;;;;;;;;;;5042730;28;20458;-79
2023/03/17 00:45:29;;;;;;;18.10;4.70;;;;;;;;;;5042744;28;20035;-81
2023/03/17 00:47:55;;;;;;;12.35;3.83;;;;;;;;;;5043848;28;20033;-78
2023/03/17 00:50:23;;;;;;;21.58;4.43;;;;;;;;;;5039330;28;20028;-79
2023/03/17 00:52:50;;;;;;;12.32;3.85;;;;;;;;;;5040692;28;20467;-77
2023/03/17 00:55:17;;;;;;;15.70;5.00;;;;;;;;;;5041977;28;20113;-78
2023/03/17 00:57:43;;;;;;;20.90;3.63;;;;;;;;;;5039709;28;20029;-78
2023/03/17 01:00:16;;;;;;;18.15;4.78;;;;;;;;;;5040782;28;20076;-79
2023/03/17 01:02:42;;;;;;;14.90;3.88;;;;;;;;;;5038860;28;20044;-78
2023/03/17 01:05:09;;;;;;;19.95;4.75;;;;;;;;;;5040539;28;20074;-78
2023/03/17 01:07:36;;;;;;;13.65;4.10;;;;;;;;;;5040186;28;20033;-78
2023/03/17 01:10:02;;;;;;;12.82;4.40;;;;;;;;;;5037835;28;20026;-79
2023/03/17 01:12:28;;;;;;;14.48;3.80;;;;;;;;;;5040431;28;20025;-78
2023/03/17 01:14:54;;;;;;;7.55;3.95;;;;;;;;;;5042805;28;20049;-79
2023/03/17 01:17:20;;;;;;;11.48;3.50;;;;;;;;;;5040597;28;20542;-79
2023/03/17 01:19:47;;;;;;;15.60;4.10;;;;;;;;;;5038272;28;20049;-78
2023/03/17 01:22:13;;;;;;;14.25;4.60;;;;;;;;;;5039544;28;20329;-79
2023/03/17 01:24:40;;;;;;;21.48;5.10;;;;;;;;;;5039304;28;20394;-77
2023/03/17 01:27:06;;;;;;;15.50;4.00;;;;;;;;;;5038385;28;20030;-77
2023/03/17 01:29:33;;;;;;;13.75;3.30;;;;;;;;;;5031404;28;20065;-79
2023/03/17 01:31:59;;;;;;;11.95;4.18;;;;;;;;;;5041434;28;20089;-78
2023/03/17 01:34:25;;;;;;;13.13;3.83;;;;;;;;;;5038815;28;20041;-78
2023/03/17 01:36:52;;;;;;;15.30;4.38;;;;;;;;;;5038058;28;20032;-78
2023/03/17 01:39:18;;;;;;;16.10;4.63;;;;;;;;;;5042453;28;20052;-77
2023/03/17 01:41:45;;;;;;;12.30;4.15;;;;;;;;;;5041117;28;20037;-77
2023/03/17 01:44:16;;;;;;;15.88;4.28;;;;;;;;;;5040144;28;20051;-77
2023/03/17 01:46:42;;;;;;;12.65;5.15;;;;;;;;;;5040524;28;20116;-77
2023/03/17 01:49:32;;;;;;;14.75;4.38;;;;;;;;;;5041025;28;20025;-77
2023/03/17 01:52:04;;;;;;;10.95;3.42;;;;;;;;;;5038877;28;20047;-79
2023/03/17 01:54:45;;;;;;;21.48;4.72;;;;;;;;;;5041491;28;20029;-79
2023/03/17 01:57:11;;;;;;;12.40;4.47;;;;;;;;;;5037232;28;20021;-78
2023/03/17 01:59:40;;;;;;;13.98;4.13;;;;;;;;;;5042431;28;20093;-78
2023/03/17 02:02:09;;;;;;;19.27;3.90;;;;;;;;;;5046213;28;20025;-79
2023/03/17 02:04:36;;;;;;;13.57;3.75;;;;;;;;;;5045526;28;20025;-78
2023/03/17 02:07:03;;;;;;;17.30;4.18;;;;;;;;;;5042226;28;20025;-78
2023/03/17 02:09:31;;;;;;;14.40;4.10;;;;;;;;;;5036316;28;20021;-80
2023/03/17 02:11:58;;;;;;;20.92;4.55;;;;;;;;;;5042547;28;20045;-78
2023/03/17 02:14:24;;;;;;;12.73;4.50;;;;;;;;;;5039120;28;20026;-78
2023/03/17 02:16:50;;;;;;;11.95;3.70;;;;;;;;;;5041028;28;20032;-78
2023/03/17 02:19:16;;;;;;;20.60;4.75;;;;;;;;;;5040043;28;20101;-79
2023/03/17 02:21:47;;;;;;;12.05;3.97;;;;;;;;;;5041325;28;20119;-79
2023/03/17 02:24:18;;;;;;;16.90;3.85;;;;;;;;;;5037936;28;20055;-78
2023/03/17 02:26:45;;;;;;;11.45;5.07;;;;;;;;;;5039195;28;20032;-80
2023/03/17 02:29:11;;;;;;;11.15;4.43;;;;;;;;;;5042671;28;20037;-78
2023/03/17 02:31:37;;;;;;;12.30;4.00;;;;;;;;;;5034991;28;20423;-77
2023/03/17 02:34:04;;;;;;;18.38;4.80;;;;;;;;;;5035743;28;20055;-79
2023/03/17 02:36:30;;;;;;;15.65;3.53;;;;;;;;;;5035913;28;20067;-78
2023/03/17 02:38:56;;;;;;;12.40;3.75;;;;;;;;;;5040679;28;20055;-78
2023/03/17 02:41:23;;;;;;;23.20;5.50;;;;;;;;;;5038984;28;20083;-78
2023/03/17 02:43:49;;;;;;;14.63;4.25;;;;;;;;;;5032262;28;20033;-79
2023/03/17 02:46:15;;;;;;;15.35;3.65;;;;;;;;;;5035879;28;20022;-79
2023/03/17 02:48:42;;;;;;;13.43;3.70;;;;;;;;;;5039607;28;20060;-78
2023/03/17 02:51:08;;;;;;;16.27;4.93;;;;;;;;;;5040296;28;20041;-77
2023/03/17 02:53:34;;;;;;;17.70;4.25;;;;;;;;;;5034201;28;20041;-78
2023/03/17 02:56:01;;;;;;;14.50;3.58;;;;;;;;;;5036742;28;20029;-79
2023/03/17 02:58:27;;;;;;;13.65;4.13;;;;;;;;;;5034925;28;20093;-78
2023/03/17 03:00:53;;;;;;;13.68;3.33;;;;;;;;;;5035286;28;20038;-79
2023/03/17 03:03:19;;;;;;;16.77;4.60;;;;;;;;;;5039464;28;20060;-78
2023/03/17 03:05:46;;;;;;;10.63;3.33;;;;;;;;;;5037499;28;20052;-81
2023/03/17 03:08:12;;;;;;;15.80;3.80;;;;;;;;;;5034620;28;20018;-78
2023/03/17 03:10:38;;;;;;;18.10;4.22;;;;;;;;;;5038738;28;20116;-78
2023/03/17 03:13:04;;;;;;;7.68;3.70;;;;;;;;;;5037716;28;20032;-79
2023/03/17 03:15:30;;;;;;;17.80;4.07;;;;;;;;;;5038660;28;20030;-79
2023/03/17 03:17:56;;;;;;;13.18;4.00;;;;;;;;;;5037402;28;20049;-77
2023/03/17 03:20:23;;;;;;;15.45;3.90;;;;;;;;;;5037729;28;20036;-78
2023/03/17 03:22:49;;;;;;;14.55;3.92;;;;;;;;;;5037705;28;20057;-78
2023/03/17 03:25:15;;;;;;;12.10;4.63;;;;;;;;;;5037226;28;20030;-78
2023/03/17 03:27:42;;;;;;;14.57;3.63;;;;;;;;;;5039628;28;20021;-79
2023/03/17 03:30:09;;;;;;;13.55;3.30;;;;;;;;;;5030765;28;20032;-78
2023/03/17 03:32:35;;;;;;;13.35;5.00;;;;;;;;;;5036218;28;20049;-77
2023/03/17 03:35:03;;;;;;;13.75;4.82;;;;;;;;;;5038186;28;20029;-78
2023/03/17 03:37:29;;;;;;;16.48;3.42;;;;;;;;;;5034767;28;20025;-77
2023/03/17 03:39:55;;;;;;;19.20;4.55;;;;;;;;;;5034398;28;20128;-77
2023/03/17 03:42:21;;;;;;;18.85;4.43;;;;;;;;;;5039767;28;20048;-78
2023/03/17 03:44:47;;;;;;;11.60;3.83;;;;;;;;;;5041837;28;20025;-77
2023/03/17 03:47:13;;;;;;;13.52;4.78;;;;;;;;;;5040639;28;20016;-77
2023/03/17 03:49:39;;;;;;;13.23;3.63;;;;;;;;;;5042103;28;20025;-77
2023/03/17 03:52:06;;;;;;;14.70;3.75;;;;;;;;;;5038113;28;20036;-77
2023/03/17 03:54:32;;;;;;;12.98;4.35;;;;;;;;;;5037043;28;20034;-77
2023/03/17 03:56:58;;;;;;;15.77;4.18;;;;;;;;;;5040800;28;20053;-78
2023/03/17 03:59:24;;;;;;;15.68;2.88;;;;;;;;;;5041086;28;20037;-77
2023/03/17 04:01:50;;;;;;;12.73;3.45;;;;;;;;;;5044593;28;20029;-76
2023/03/17 04:04:16;;;;;;;11.68;3.60;;;;;;;;;;5037793;28;20032;-76
2023/03/17 04:06:43;;;;;;;14.63;5.00;;;;;;;;;;5042407;28;20026;-77
2023/03/17 04:09:09;;;;;;;12.70;4.05;;;;;;;;;;5037270;28;20026;-77
2023/03/17 04:11:35;;;;;;;20.15;3.78;;;;;;;;;;5038856;28;20026;-78
2023/03/17 04:14:02;;;;;;;17.83;3.78;;;;;;;;;;5042432;28;20025;-78
2023/03/17 04:16:28;;;;;;;7.82;3.30;;;;;;;;;;5043852;28;20025;-81
2023/03/17 04:18:54;;;;;;;16.90;4.32;;;;;;;;;;5041508;28;20068;-77
2023/03/17 04:21:20;;;;;;;16.67;4.28;;;;;;;;;;5041920;28;20033;-77
2023/03/17 04:23:47;;;;;;;11.15;3.70;;;;;;;;;;5035950;28;20034;-77
2023/03/17 04:26:13;;;;;;;14.27;3.75;;;;;;;;;;5034687;28;20030;-77
2023/03/17 04:28:39;;;;;;;15.30;3.25;;;;;;;;;;5041264;28;20333;-77
2023/03/17 04:31:06;;;;;;;11.45;3.13;;;;;;;;;;5041491;28;20040;-78
2023/03/17 04:33:32;;;;;;;17.63;3.50;;;;;;;;;;5035178;28;20084;-78
2023/03/17 04:35:58;;;;;;;11.77;3.83;;;;;;;;;;5034638;28;20028;-78
2023/03/17 04:38:24;;;;;;;18.40;5.47;;;;;;;;;;5041569;28;20033;-77
2023/03/17 04:40:51;;;;;;;15.05;3.92;;;;;;;;;;5036407;28;20029;-76
2023/03/17 04:43:17;;;;;;;16.75;4.05;;;;;;;;;;5040523;28;20029;-77
2023/03/17 04:45:43;;;;;;;16.30;4.15;;;;;;;;;;5038058;28;20402;-78
2023/03/17 04:48:09;;;;;;;13.73;3.72;;;;;;;;;;5044740;28;20032;-78
2023/03/17 04:50:35;;;;;;;19.00;3.90;;;;;;;;;;5045880;28;20021;-78
2023/03/17 04:53:01;;;;;;;15.18;3.78;;;;;;;;;;5039526;28;20049;-78
2023/03/17 04:55:27;;;;;;;11.95;4.10;;;;;;;;;;5040731;28;20055;-77
2023/03/17 04:57:53;;;;;;;17.63;3.80;;;;;;;;;;5037772;28;20033;-79
2023/03/17 05:00:20;;;;;;;13.38;3.67;;;;;;;;;;5041355;28;20025;-79
2023/03/17 05:02:46;;;;;;;15.23;3.53;;;;;;;;;;5040407;28;20026;-77
2023/03/17 05:05:12;;;;;;;18.88;4.22;;;;;;;;;;5040587;28;20025;-77
2023/03/17 05:07:38;;;;;;;18.13;3.25;;;;;;;;;;5042614;28;20029;-77
2023/03/17 05:10:05;;;;;;;11.57;4.28;;;;;;;;;;5037635;28;20028;-77
2023/03/17 05:12:31;;;;;;;16.65;4.35;;;;;;;;;;5039797;28;20028;-78
2023/03/17 05:14:57;;;;;;;14.20;3.95;;;;;;;;;;5038433;28;20044;-78
2023/03/17 05:17:24;;;;;;;14.35;4.43;;;;;;;;;;5037529;28;20033;-77
2023/03/17 05:19:50;;;;;;;13.43;4.00;;;;;;;;;;5040227;28;20080;-77
2023/03/17 05:22:16;;;;;;;12.82;4.05;;;;;;;;;;5030807;28;20116;-78
2023/03/17 05:24:42;;;;;;;10.30;3.70;;;;;;;;;;5038684;28;20101;-77
2023/03/17 05:27:08;;;;;;;17.25;3.22;;;;;;;;;;5041156;28;20029;-79
2023/03/17 05:29:34;;;;;;;20.52;3.85;;;;;;;;;;5034489;28;20090;-77
2023/03/17 05:32:00;;;;;;;19.60;4.05;;;;;;;;;;5035437;28;20036;-77
2023/03/17 05:34:27;;;;;;;16.35;5.03;;;;;;;;;;5040432;28;20041;-78
2023/03/17 05:36:53;;;;;;;15.10;3.22;;;;;;;;;;5034492;28;20041;-81
2023/03/17 05:39:19;;;;;;;18.77;3.63;;;;;;;;;;5040821;28;20029;-78
2023/03/17 05:41:46;;;;;;;21.90;4.13;;;;;;;;;;5036562;28;20033;-79
2023/03/17 05:44:12;;;;;;;14.55;3.90;;;;;;;;;;5038214;28;20025;-79
2023/03/17 05:46:38;;;;;;;12.05;3.05;;;;;;;;;;5035533;28;20025;-77
2023/03/17 05:49:07;;;;;;;14.05;3.58;;;;;;;;;;5040354;28;20036;-79
2023/03/17 05:51:33;;;;;;;13.43;3.75;;;;;;;;;;5038405;28;20022;-79
2023/03/17 05:53:59;;;;;;;6.88;3.38;;;;;;;;;;5038232;28;20037;-78
2023/03/17 05:56:32;;;;;;;11.13;3.80;;;;;;;;;;5037851;28;20041;-80
2023/03/17 05:58:58;;;;;;;12.93;4.47;;;;;;;;;;5038345;28;20052;-78
2023/03/17 06:01:24;;;;;;;10.13;3.95;;;;;;;;;;5038091;28;20110;-79
2023/03/17 06:03:50;;;;;;;11.68;2.67;;;;;;;;;;5039841;28;20331;-78
2023/03/17 06:06:17;;;;;;;16.73;4.78;;;;;;;;;;5038178;28;20048;-79
2023/03/17 06:08:43;;;;;;;6.50;2.88;;;;;;;;;;5036609;28;20022;-77
2023/03/17 06:11:09;;;;;;;9.80;3.38;;;;;;;;;;5038974;28;20081;-77
2023/03/17 06:13:35;;;;;;;11.93;2.80;;;;;;;;;;5035328;28;20060;-79
2023/03/17 06:16:01;;;;;;;14.98;2.95;;;;;;;;;;5040060;28;20080;-78
2023/03/17 06:18:28;;;;;;;11.27;2.97;;;;;;;;;;5037217;28;20420;-79
2023/03/17 06:20:54;;;;;;;11.35;3.03;;;;;;;;;;5037296;28;20121;-77
2023/03/17 06:23:22;;;;;;;13.18;3.25;;;;;;;;;;5034851;28;20034;-77
2023/03/17 06:25:50;;;;;;;14.13;3.63;;;;;;;;;;5030894;28;20045;-78
2023/03/17 06:28:16;;;;;;;15.00;3.92;;;;;;;;;;5034464;28;20082;-77
2023/03/17 06:30:42;;;;;;;13.18;3.80;;;;;;;;;;5039850;28;20079;-78
2023/03/17 06:33:08;;;;;;;12.15;3.67;;;;;;;;;;5035938;28;20424;-77
2023/03/17 06:35:34;;;;;;;12.98;3.38;;;;;;;;;;5036658;28;20116;-78
2023/03/17 06:38:01;;;;;;;15.60;4.20;;;;;;;;;;5041337;28;20036;-78
2023/03/17 06:40:27;;;;;;;12.73;3.28;;;;;;;;;;5039554;28;20033;-79
2023/03/17 06:42:53;;;;;;;16.02;3.50;;;;;;;;;;5033598;28;20025;-76
2023/03/17 06:45:19;;;;;;;17.08;4.95;;;;;;;;;;5038973;28;20053;-77
2023/03/17 06:47:45;;;;;;;7.90;3.42;;;;;;;;;;5040681;28;20040;-79
2023/03/17 06:50:12;;;;;;;11.73;3.03;;;;;;;;;;5039540;28;20017;-76
2023/03/17 06:52:39;;;;;;;14.02;3.65;;;;;;;;;;5041653;28;20032;-78
2023/03/17 06:55:06;;;;;;;12.15;3.17;;;;;;;;;;5038982;28;20022;-78
2023/03/17 06:57:32;;;;;;;18.08;3.25;;;;;;;;;;5034314;28;20070;-78
2023/03/17 06:59:58;;;;;;;14.35;3.15;;;;;;;;;;5035874;28;20033;-77
2023/03/17 07:02:25;;;;;;;13.52;3.83;;;;;;;;;;5037462;28;20033;-77
2023/03/17 07:04:52;;;;;;;12.43;4.55;;;;;;;;;;5036942;28;20033;-78
2023/03/17 07:07:19;;;;;;;10.77;3.40;;;;;;;;;;5035840;28;20025;-78
2023/03/17 07:09:46;;;;;;;15.73;3.40;;;;;;;;;;5035454;28;20086;-78
2023/03/17 07:12:13;;;;;;;15.55;4.65;;;;;;;;;;5039653;28;20028;-77
2023/03/17 07:14:39;;;;;;;10.52;4.05;;;;;;;;;;5038965;28;20071;-77
2023/03/17 07:17:05;;;;;;;9.00;3.10;;;;;;;;;;5040539;28;20116;-77
2023/03/17 07:19:32;;;;;;;12.85;3.30;;;;;;;;;;5042800;28;20511;-78
2023/03/17 07:21:58;;;;;;;13.95;4.13;;;;;;;;;;5040812;28;20033;-79
2023/03/17 07:24:25;;;;;;;12.90;3.28;;;;;;;;;;5042214;28;20550;-77
2023/03/17 07:26:51;;;;;;;14.85;3.58;;;;;;;;;;5036855;28;20037;-77
2023/03/17 07:29:17;;;;;;;10.13;4.20;;;;;;;;;;5041577;28;20025;-76
2023/03/17 07:31:44;;;;;;;12.23;2.97;;;;;;;;;;5035217;28;20025;-77
2023/03/17 07:34:10;;;;;;;13.90;3.92;;;;;;;;;;5039350;28;20029;-78
2023/03/17 07:36:36;;;;;;;8.15;2.78;;;;;;;;;;5042872;28;20048;-79
2023/03/17 07:39:03;;;;;;;15.80;2.92;;;;;;;;;;5042662;28;20039;-77
2023/03/17 07:41:29;;;;;;;12.60;4.45;;;;;;;;;;5048064;28;20053;-77
2023/03/17 07:43:58;;;;;;;9.57;2.83;;;;;;;;;;5045110;28;20091;-79
2023/03/17 07:46:25;;;;;;;15.15;3.25;;;;;;;;;;5045767;28;20033;-77
2023/03/17 07:48:52;;;;;;;9.02;2.60;;;;;;;;;;5031446;28;20052;-77
2023/03/17 07:51:21;;;;;;;13.82;3.15;;;;;;;;;;5040635;28;20021;-77
2023/03/17 07:53:48;;;;;;;9.38;2.42;;;;;;;;;;5041791;28;20028;-78
2023/03/17 07:56:15;;;;;;;10.15;2.65;;;;;;;;;;5042001;28;20021;-80
2023/03/17 07:58:41;;;;;;;8.35;3.30;;;;;;;;;;5038051;28;20101;-76
2023/03/17 08:01:08;;;;;;;9.85;2.83;;;;;;;;;;5037125;28;20036;-77
2023/03/17 08:03:35;;;;;;;14.18;3.78;;;;;;;;;;5039950;28;20051;-81
2023/03/17 08:06:02;;;;;;;7.30;3.80;;;;;;;;;;5042307;28;20026;-77
2023/03/17 08:08:29;;;;;;;13.15;3.70;;;;;;;;;;5042501;28;20026;-79
2023/03/17 08:11:02;;;;;;;7.90;2.50;;;;;;;;;;5041864;28;20022;-79
2023/03/17 08:13:28;;;;;;;18.90;3.00;;;;;;;;;;5041900;28;20040;-77
2023/03/17 08:15:54;;;;;;;12.90;2.88;;;;;;;;;;5042340;28;20030;-79
2023/03/17 08:18:21;;;;;;;8.07;3.30;;;;;;;;;;5041522;28;20054;-78
2023/03/17 08:20:47;;;;;;;15.23;3.10;;;;;;;;;;5039457;28;20029;-78
2023/03/17 08:23:13;;;;;;;8.00;3.10;;;;;;;;;;5040598;28;20057;-77
2023/03/17 08:25:39;;;;;;;8.98;2.78;;;;;;;;;;5043595;28;20029;-80
2023/03/17 08:28:05;;;;;;;9.80;3.00;;;;;;;;;;5042577;28;20022;-78
2023/03/17 08:30:33;;;;;;;5.35;2.50;;;;;;;;;;5041567;28;20036;-79
2023/03/17 08:32:59;;;;;;;7.45;3.10;;;;;;;;;;5041696;28;20029;-78
2023/03/17 08:35:26;;;;;;;7.18;2.65;;;;;;;;;;5041962;28;20124;-78
2023/03/17 08:37:52;;;;;;;5.05;2.25;;;;;;;;;;5043474;28;20030;-77
2023/03/17 08:40:18;;;;;;;4.80;2.75;;;;;;;;;;5041353;28;20464;-78
2023/03/17 08:42:45;;;;;;;6.78;2.75;;;;;;;;;;5040357;28;20033;-79
2023/03/17 08:45:12;;;;;;;7.72;3.15;;;;;;;;;;5038568;28;20091;-77
2023/03/17 08:47:39;;;;;;;9.93;2.95;;;;;;;;;;5036989;28;20017;-78
2023/03/17 08:50:07;;;;;;;10.90;3.03;;;;;;;;;;5039615;28;20036;-77
2023/03/17 08:52:34;;;;;;;8.52;4.38;;;;;;;;;;5038090;28;20084;-79
2023/03/17 08:55:00;;;;;;;11.50;3.22;;;;;;;;;;5039302;28;20079;-78
2023/03/17 08:57:26;;;;;;;5.00;2.22;;;;;;;;;;5040460;28;20025;-78
2023/03/17 08:59:53;;;;;;;8.98;2.85;;;;;;;;;;5042744;28;20108;-79
2023/03/17 09:02:20;;;;;;;7.07;2.50;;;;;;;;;;5040985;28;20554;-78
2023/03/17 09:04:47;;;;;;;7.88;3.50;;;;;;;;;;5041297;28;20026;-78
2023/03/17 09:07:13;;;;;;;9.75;3.10;;;;;;;;;;5039127;28;20013;-79
2023/03/17 09:09:41;;;;;;;13.05;4.03;;;;;;;;;;5040300;28;20527;-77
2023/03/17 09:12:08;;;;;;;11.93;3.20;;;;;;;;;;5041878;28;20540;-79
2023/03/17 09:14:35;;;;;;;10.75;2.85;;;;;;;;;;5042030;28;20021;-76
2023/03/17 09:17:02;;;;;;;10.68;3.05;;;;;;;;;;5041405;28;20033;-77
2023/03/17 09:19:28;;;;;;;11.20;2.95;;;;;;;;;;5040601;28;20053;-78
2023/03/17 09:21:54;;;;;;;9.10;2.75;;;;;;;;;;5039708;28;20040;-77
2023/03/17 09:24:20;;;;;;;17.92;3.83;;;;;;;;;;5036298;28;20089;-78
2023/03/17 09:26:46;;;;;;;11.52;3.10;;;;;;;;;;5034797;28;20079;-78
2023/03/17 09:29:14;;;;;;;8.40;3.90;;;;;;;;;;5036202;28;20025;-77
2023/03/17 09:31:41;;;;;;;10.25;3.65;;;;;;;;;;5036919;28;20241;-79
2023/03/17 09:34:08;;;;;;;10.15;3.55;;;;;;;;;;5030217;28;20025;-78
2023/03/17 09:36:34;;;;;;;18.23;3.70;;;;;;;;;;5033986;28;20033;-78
2023/03/17 09:39:00;;;;;;;11.45;3.00;;;;;;;;;;5033094;28;20096;-79
2023/03/17 09:41:47;;;;;;;11.73;3.17;;;;;;;;;;5035097;28;20053;-78
2023/03/17 09:44:19;;;;;;;10.95;3.72;;;;;;;;;;5034479;28;20026;-80
2023/03/17 09:46:53;;;;;;;8.98;4.00;;;;;;;;;;5032960;28;20111;-80
2023/03/17 09:49:28;;;;;;;13.13;3.63;;;;;;;;;;5034893;28;20040;-78
2023/03/17 09:51:54;;;;;;;10.10;4.07;;;;;;;;;;5033922;28;20030;-79
2023/03/17 09:54:36;;;;;;;12.52;3.70;;;;;;;;;;5038123;28;20025;-79
2023/03/17 09:57:09;;;;;;;15.27;4.45;;;;;;;;;;5038590;28;20025;-79
2023/03/17 09:59:38;;;;;;;9.95;3.42;;;;;;;;;;5034953;28;20116;-79
2023/03/17 10:02:15;;;;;;;19.48;4.20;;;;;;;;;;5042128;28;20025;-78
2023/03/17 10:04:43;;;;;;;14.48;3.60;;;;;;;;;;5050607;28;20045;-80
2023/03/17 10:07:11;;;;;;;12.25;3.25;;;;;;;;;;5037446;28;20022;-80
2023/03/17 10:09:44;;;;;;;13.32;4.20;;;;;;;;;;5034910;28;20079;-81
2023/03/17 10:12:17;;;;;;;16.60;3.63;;;;;;;;;;5035525;28;20053;-79
2023/03/17 10:14:51;;;;;;;20.75;4.05;;;;;;;;;;5036110;28;20089;-78
2023/03/17 10:17:19;;;;;;;16.98;3.75;;;;;;;;;;5033008;28;20518;-79
2023/03/17 10:19:52;;;;;;;14.57;4.35;;;;;;;;;;5030917;28;20053;-79
2023/03/17 10:22:28;;;;;;;11.98;3.63;;;;;;;;;;5035633;28;20032;-82
2023/03/17 10:24:57;;;;;;;12.18;3.53;;;;;;;;;;5044527;28;20025;-80
2023/03/17 10:27:23;;;;;;;12.63;4.55;;;;;;;;;;5038319;28;20053;-81
2023/03/17 10:29:49;;;;;;;19.33;4.18;;;;;;;;;;5036929;28;20075;-80
2023/03/17 10:32:15;;;;;;;13.23;4.13;;;;;;;;;;5036712;28;20021;-81
2023/03/17 10:34:42;;;;;;;16.80;4.43;;;;;;;;;;5032569;28;20036;-79
2023/03/17 10:37:12;;;;;;;10.10;3.67;;;;;;;;;;5031448;28;20025;-80
2023/03/17 10:39:49;;;;;;;13.90;4.70;;;;;;;;;;5039377;28;20040;-81
2023/03/17 10:42:25;;;;;;;12.00;3.45;;;;;;;;;;5035179;28;20103;-80
2023/03/17 10:44:58;;;;;;;12.63;4.97;;;;;;;;;;5032523;28;20037;-80
2023/03/17 10:47:28;;;;;;;9.48;3.30;;;;;;;;;;5034264;28;20032;-80
2023/03/17 10:49:56;;;;;;;12.90;4.28;;;;;;;;;;5034089;28;20032;-80
2023/03/17 10:52:26;;;;;;;18.45;5.82;;;;;;;;;;5041321;28;20301;-81
2023/03/17 10:54:53;;;;;;;13.50;4.45;;;;;;;;;;5046471;28;20037;-82
2023/03/17 10:57:20;;;;;;;14.38;5.63;;;;;;;;;;5042267;28;20116;-79
2023/03/17 10:59:53;;;;;;;18.90;8.38;;;;;;;;;;5042064;28;20052;-83
2023/03/17 11:02:33;;;;;;;21.45;13.00;;;;;;;;;;5037162;28;20005;-80
2023/03/17 11:05:08;;;;;;;13.48;6.35;;;;;;;;;;5037367;28;20396;-80
2023/03/17 11:07:37;;;;;;;17.33;6.32;;;;;;;;;;5039552;28;20049;-80
2023/03/17 11:10:03;;;;;;;11.00;5.22;;;;;;;;;;5036907;28;20109;-79
2023/03/17 11:12:39;;;;;;;13.63;4.43;;;;;;;;;;5039993;28;20033;-80
2023/03/17 11:15:05;;;;;;;;;;;;;;;;;;5038596;28;20026;-79
2023/03/17 11:17:31;;;;;;;;;;;;;;;;;;5038151;28;19940;-79
2023/03/17 11:20:23;;;;;;;8.45;2.95;;;;;;;;;;5039434;28;19924;-80
2023/03/17 11:22:57;;;;;;;8.10;2.90;;;;;;;;;;5039036;28;20042;-81
2023/03/17 11:25:24;;;;;;;11.00;3.17;;;;;;;;;;5043832;28;20056;-80
2023/03/17 11:28:03;;;;;;;9.48;3.78;;;;;;;;;;5045376;28;20052;-79
2023/03/17 11:30:32;;;;;;;7.05;3.03;;;;;;;;;;5037309;28;20053;-80
2023/03/17 11:33:04;;;;;;;10.95;3.50;;;;;;;;;;5037669;28;20487;-79
2023/03/17 11:35:40;;;;;;;6.85;3.50;;;;;;;;;;5040091;28;20037;-80
2023/03/17 11:38:18;;;;;;;10.20;3.50;;;;;;;;;;5036349;28;20033;-82
2023/03/17 11:40:47;;;;;;;6.47;2.40;;;;;;;;;;5037671;28;20351;-80
2023/03/17 11:43:16;;;;;;;7.85;2.88;;;;;;;;;;5042543;28;20030;-80
2023/03/17 11:45:54;;;;;;;5.90;2.55;;;;;;;;;;5040454;28;20017;-80
2023/03/17 11:48:30;;;;;;;10.20;4.03;;;;;;;;;;5037692;28;20039;-79
2023/03/17 11:50:56;;;;;;;8.73;2.72;;;;;;;;;;5037765;28;20053;-80
2023/03/17 11:53:22;;;;;;;8.55;2.80;;;;;;;;;;5041727;28;20022;-80
2023/03/17 11:55:51;;;;;;;6.00;2.50;;;;;;;;;;5039131;28;20101;-79
2023/03/17 11:58:27;;;;;;;6.03;2.55;;;;;;;;;;5038096;28;20044;-80
2023/03/17 12:00:57;;;;;;;6.10;2.42;;;;;;;;;;5037723;28;20432;-79
2023/03/17 12:03:33;;;;;;;5.90;2.22;;;;;;;;;;5043001;28;20029;-80
2023/03/17 12:06:03;;;;;;;5.93;2.22;;;;;;;;;;5033574;28;20037;-81
2023/03/17 12:08:36;;;;;;;9.60;3.15;;;;;;;;;;5039716;28;20026;-82
2023/03/17 12:11:06;;;;;;;6.40;2.67;;;;;;;;;;5036600;28;20010;-78
2023/03/17 12:13:55;;;;;;;9.65;2.50;;;;;;;;;;5042344;28;20033;-78
2023/03/17 12:16:24;;;;;;;6.10;2.00;;;;;;;;;;5029583;28;20072;-81
2023/03/17 12:18:58;;;;;;;5.40;2.20;;;;;;;;;;5037759;28;20061;-82
2023/03/17 12:21:29;;;;;;;3.25;1.98;;;;;;;;;;5035407;28;20025;-79
2023/03/17 12:24:05;;;;;;;3.72;1.90;;;;;;;;;;5034598;28;20064;-80
2023/03/17 12:26:51;;;;;;;4.10;1.85;;;;;;;;;;5039450;28;20026;-78
2023/03/17 12:29:36;;;;;;;4.35;2.10;;;;;;;;;;5030639;28;20033;-79
2023/03/17 12:32:15;;;;;;;3.03;1.83;;;;;;;;;;5035609;28;20456;-79
2023/03/17 12:34:49;;;;;;;4.30;1.58;;;;;;;;;;5035160;28;20048;-78
2023/03/17 12:37:16;;;;;;;4.07;1.50;;;;;;;;;;5030708;28;20118;-78
2023/03/17 12:39:46;;;;;;;4.13;2.25;;;;;;;;;;5033963;28;20119;-79
2023/03/17 12:42:13;;;;;;;5.30;2.85;;;;;;;;;;5031059;28;20410;-78
2023/03/17 12:44:39;;;;;;;4.65;2.92;;;;;;;;;;5035037;28;20089;-77
2023/03/17 12:47:11;;;;;;;3.33;1.40;;;;;;;;;;5031411;28;20022;-79
2023/03/17 12:49:49;;;;;;;4.15;2.25;;;;;;;;;;5034284;28;20044;-79
2023/03/17 12:52:36;;;;;;;3.80;1.70;;;;;;;;;;5032399;28;20045;-78
2023/03/17 12:55:04;;;;;;;3.67;1.83;;;;;;;;;;5030679;28;20097;-79
2023/03/17 12:57:37;;;;;;;5.15;1.90;;;;;;;;;;5033114;28;20029;-78
2023/03/17 13:00:06;;;;;;;2.90;1.73;;;;;;;;;;5028734;28;20041;-79
2023/03/17 13:02:37;;;;;;;8.52;3.25;;;;;;;;;;5034452;28;20070;-80
2023/03/17 13:05:06;;;;;;;3.55;1.88;;;;;;;;;;5034073;28;21194;-79
2023/03/17 13:07:36;;;;;;;7.88;2.10;;;;;;;;;;5039062;28;20095;-81
2023/03/17 13:10:02;;;;;;;6.28;1.92;;;;;;;;;;5036307;28;20447;-79
2023/03/17 13:12:34;;;;;;;4.57;1.88;;;;;;;;;;5032541;28;20116;-78
2023/03/17 13:15:01;;;;;;;5.70;2.15;;;;;;;;;;5032168;28;20037;-79
2023/03/17 13:17:27;;;;;;;5.70;2.40;;;;;;;;;;5030700;28;20065;-79
2023/03/17 13:20:09;;;;;;;2.95;1.98;;;;;;;;;;5033007;28;20064;-77
2023/03/17 13:22:35;;;;;;;4.82;2.50;;;;;;;;;;5031695;28;20033;-81
2023/03/17 13:25:20;;;;;;;4.20;2.10;;;;;;;;;;5030367;28;20777;-79
2023/03/17 13:27:48;;;;;;;7.75;2.58;;;;;;;;;;5031827;28;20038;-78
2023/03/17 13:30:25;;;;;;;6.10;2.13;;;;;;;;;;5036174;28;20014;-80
2023/03/17 13:32:55;;;;;;;8.90;2.72;;;;;;;;;;5033550;28;20029;-80
2023/03/17 13:35:27;;;;;;;4.90;2.20;;;;;;;;;;5034753;28;20056;-80
2023/03/17 13:37:59;;;;;;;7.00;2.25;;;;;;;;;;5034976;28;20033;-78
2023/03/17 13:40:31;;;;;;;5.28;2.50;;;;;;;;;;5038352;28;20483;-78
2023/03/17 13:42:57;;;;;;;4.50;2.10;;;;;;;;;;5029664;28;20028;-80
2023/03/17 13:45:40;;;;;;;3.80;1.67;;;;;;;;;;5035216;28;20033;-79
2023/03/17 13:48:27;;;;;;;3.95;2.20;;;;;;;;;;5031641;28;20025;-78
2023/03/17 13:51:13;;;;;;;6.85;1.98;;;;;;;;;;5033658;28;20030;-78
2023/03/17 13:54:02;;;;;;;5.95;2.78;;;;;;;;;;5019158;28;20045;-82
2023/03/17 13:56:41;;;;;;;7.07;3.00;;;;;;;;;;5034592;28;20111;-79
2023/03/17 13:59:16;;;;;;;7.68;2.55;;;;;;;;;;5036846;28;20026;-78
2023/03/17 14:01:42;;;;;;;3.95;2.08;;;;;;;;;;5035042;28;20029;-79
2023/03/17 14:04:26;;;;;;;4.80;2.58;;;;;;;;;;5034022;28;20471;-80
2023/03/17 14:06:54;;;;;;;3.95;1.77;;;;;;;;;;5032284;28;20097;-80
2023/03/17 14:09:27;;;;;;;7.25;2.33;;;;;;;;;;5033276;28;20116;-79
2023/03/17 14:11:53;;;;;;;5.88;2.45;;;;;;;;;;5031282;28;20095;-79
2023/03/17 14:14:20;;;;;;;5.80;2.60;;;;;;;;;;5036040;28;20040;-80
2023/03/17 14:16:52;;;;;;;5.05;2.75;;;;;;;;;;5034166;28;20117;-78
2023/03/17 14:19:18;;;;;;;5.90;2.75;;;;;;;;;;5033501;28;20076;-79
2023/03/17 14:21:44;;;;;;;3.97;1.90;;;;;;;;;;5033626;28;20018;-79
2023/03/17 14:24:19;;;;;;;3.60;1.95;;;;;;;;;;5034647;28;20029;-81
2023/03/17 14:26:47;;;;;;;4.80;2.05;;;;;;;;;;5032587;28;20109;-80
2023/03/17 14:29:18;;;;;;;5.20;1.80;;;;;;;;;;5034331;28;20046;-80
2023/03/17 14:31:51;;;;;;;6.60;2.72;;;;;;;;;;5033349;28;20060;-78
2023/03/17 14:34:20;;;;;;;3.13;2.05;;;;;;;;;;5027459;28;20483;-79
2023/03/17 14:36:46;;;;;;;2.63;1.70;;;;;;;;;;5052050;28;20036;-81
2023/03/17 14:39:23;;;;;;;7.18;1.90;;;;;;;;;;5032782;28;20021;-80
2023/03/17 14:42:03;;;;;;;1.77;1.67;;;;;;;;;;5029290;28;20048;-80
2023/03/17 14:44:39;;;;;;;5.32;1.90;;;;;;;;;;5032242;28;20038;-83
2023/03/17 14:47:12;;;;;;;5.63;3.45;;;;;;;;;;5036199;28;20018;-79
2023/03/17 14:49:39;;;;;;;3.55;1.80;;;;;;;;;;5030501;28;20020;-81